Time;durP1;ratioP1;P1;durP2;ratioP2;P2;SDS_P1;SDS_P2;PMS_P1;PMS_P2;Temp;Humidity;BMP_temperature;BMP_pressure;BME280_temperature;BME280_humidity;BME280_pressure;Samples;Min_cycle;Max_cycle;Signal;HPM_P1;HPM_P2
2021/12/22 00:01:30;;;;;;;8.60;6.85;;;18.00;54.60;;;;;;5004925;28;20032;-64
2021/12/22 00:03:56;;;;;;;9.75;6.70;;;18.00;54.60;;;;;;5004820;28;20506;-64
2021/12/22 00:06:24;;;;;;;8.23;6.40;;;18.00;54.50;;;;;;5005364;28;20033;-64
2021/12/22 00:08:50;;;;;;;7.97;6.13;;;18.00;54.50;;;;;;5004722;28;20037;-64
2021/12/22 00:11:15;;;;;;;7.82;6.30;;;18.00;54.50;;;;;;5004468;28;20040;-64
2021/12/22 00:13:41;;;;;;;8.88;6.65;;;18.00;54.50;;;;;;5004787;28;20030;-64
2021/12/22 00:16:06;;;;;;;10.50;6.93;;;18.00;54.50;;;;;;5004773;28;20022;-64
2021/12/22 00:18:32;;;;;;;10.43;6.93;;;18.00;54.50;;;;;;5004376;28;20021;-64
2021/12/22 00:20:57;;;;;;;8.35;6.53;;;17.90;54.50;;;;;;5004854;28;20038;-64
2021/12/22 00:23:23;;;;;;;7.68;5.88;;;18.00;54.40;;;;;;5005139;28;20057;-64
2021/12/22 00:25:48;;;;;;;6.97;5.55;;;18.00;54.40;;;;;;5003476;28;20510;-64
2021/12/22 00:28:14;;;;;;;8.77;6.38;;;17.90;54.40;;;;;;5004394;28;20053;-64
2021/12/22 00:30:40;;;;;;;7.38;5.78;;;18.00;54.40;;;;;;5004448;28;20069;-64
2021/12/22 00:33:07;;;;;;;6.30;5.55;;;17.90;54.30;;;;;;5003583;28;20022;-64
2021/12/22 00:35:42;;;;;;;6.85;5.65;;;17.90;54.30;;;;;;5005012;28;20105;-64
2021/12/22 00:38:08;;;;;;;;;;;17.90;54.30;;;;;;5005859;28;20079;-64
2021/12/22 00:40:34;;;;;;;7.18;5.47;;;17.90;54.30;;;;;;5004944;28;19906;-64
2021/12/22 00:43:00;;;;;;;7.25;5.50;;;17.90;54.40;;;;;;5005212;28;20030;-64
2021/12/22 00:45:28;;;;;;;6.75;5.63;;;17.90;54.50;;;;;;5005161;28;20030;-64
2021/12/22 00:47:54;;;;;;;7.00;5.32;;;17.90;54.70;;;;;;5009612;28;20025;-64
2021/12/22 00:50:19;;;;;;;6.57;5.13;;;17.90;55.40;;;;;;5004284;28;20045;-64
2021/12/22 00:52:45;;;;;;;5.75;4.50;;;17.90;54.90;;;;;;5004643;28;20030;-64
2021/12/22 00:55:13;;;;;;;7.40;5.22;;;17.80;54.80;;;;;;5004450;28;20092;-64
2021/12/22 00:57:39;;;;;;;7.07;5.10;;;17.90;54.90;;;;;;5003961;28;20148;-64
2021/12/22 01:00:06;;;;;;;5.20;4.70;;;17.90;54.90;;;;;;5004688;28;20105;-64
2021/12/22 01:02:32;;;;;;;6.18;4.70;;;17.90;55.00;;;;;;5003844;28;20045;-64
2021/12/22 01:04:57;;;;;;;7.43;4.95;;;17.90;55.00;;;;;;5003372;28;20018;-64
2021/12/22 01:07:23;;;;;;;6.18;5.22;;;17.90;55.00;;;;;;5006973;28;20033;-64
2021/12/22 01:09:48;;;;;;;6.70;5.07;;;17.90;55.00;;;;;;5008203;28;20037;-64
2021/12/22 01:12:14;;;;;;;6.07;4.97;;;17.90;55.10;;;;;;5003514;28;20022;-64
2021/12/22 01:14:39;;;;;;;6.78;5.03;;;17.90;55.00;;;;;;5003324;28;20037;-64
2021/12/22 01:17:06;;;;;;;6.70;5.13;;;17.90;55.10;;;;;;5003291;28;20025;-64
2021/12/22 01:20:10;;;;;;;7.32;5.13;;;17.90;55.10;;;;;;5003414;28;20022;-64
2021/12/22 01:22:35;;;;;;;7.93;4.95;;;17.90;55.00;;;;;;5001427;28;20037;-64
2021/12/22 01:25:02;;;;;;;6.43;4.53;;;17.90;55.10;;;;;;5014662;28;20022;-63
2021/12/22 01:27:33;;;;;;;5.53;4.82;;;17.90;55.20;;;;;;5002312;28;20026;-64
2021/12/22 01:30:00;;;;;;;5.70;4.95;;;17.90;55.10;;;;;;5002728;28;20173;-64
2021/12/22 01:32:26;;;;;;;5.43;4.70;;;17.90;55.10;;;;;;5003230;28;20029;-64
2021/12/22 01:34:51;;;;;;;5.25;4.63;;;17.90;55.10;;;;;;5003177;28;20026;-64
2021/12/22 01:37:17;;;;;;;5.20;4.63;;;17.90;55.00;;;;;;5002768;28;20025;-64
2021/12/22 01:39:42;;;;;;;6.53;4.88;;;17.90;55.00;;;;;;5003296;28;20030;-64
2021/12/22 01:42:08;;;;;;;6.18;4.88;;;17.90;55.00;;;;;;5002531;28;20087;-64
2021/12/22 01:50:07;;;;;;;7.43;4.78;;;17.90;54.90;;;;;;5002840;28;20040;-64
2021/12/22 01:52:33;;;;;;;4.75;4.32;;;17.90;54.90;;;;;;4984982;28;20120;-64
2021/12/22 01:55:04;;;;;;;5.90;5.13;;;17.90;54.90;;;;;;5003216;28;20022;-64
2021/12/22 01:57:30;;;;;;;6.75;3.85;;;17.90;54.90;;;;;;5002365;28;20812;-64
2021/12/22 01:59:56;;;;;;;6.15;4.28;;;17.90;54.90;;;;;;5001971;28;20032;-64
2021/12/22 02:02:21;;;;;;;5.22;4.65;;;17.90;54.80;;;;;;5002609;28;20402;-64
2021/12/22 02:04:47;;;;;;;5.47;4.10;;;17.90;54.70;;;;;;5003375;28;20108;-64
2021/12/22 02:07:12;;;;;;;6.05;4.60;;;17.90;54.70;;;;;;5002984;28;20323;-64
2021/12/22 02:12:24;;;;;;;6.63;5.70;;;17.90;54.70;;;;;;5006487;28;20564;-64
2021/12/22 02:14:49;;;;;;;9.80;4.82;;;17.90;54.70;;;;;;5006765;28;20026;-64
2021/12/22 02:17:15;;;;;;;5.75;4.63;;;17.80;54.60;;;;;;5006014;28;20457;-64
2021/12/22 02:19:46;;;;;;;5.72;4.07;;;17.80;54.70;;;;;;5005916;28;20486;-64
2021/12/22 02:22:15;;;;;;;5.13;4.20;;;17.80;54.60;;;;;;5004773;28;20113;-64
2021/12/22 02:24:52;;;;;;;4.50;3.85;;;17.80;54.70;;;;;;5005720;28;20068;-64
2021/12/22 02:27:26;;;;;;;4.53;3.90;;;17.80;54.60;;;;;;5004089;28;20034;-64
2021/12/22 02:29:57;;;;;;;5.60;4.50;;;17.80;54.60;;;;;;5002536;28;20125;-64
2021/12/22 02:33:06;;;;;;;5.00;4.40;;;17.70;54.50;;;;;;5003695;28;20235;-64
2021/12/22 02:35:52;;;;;;;5.47;4.03;;;17.70;54.50;;;;;;5002319;28;20034;-64
2021/12/22 02:38:18;;;;;;;4.68;4.28;;;17.70;54.50;;;;;;4998215;28;20574;-64
2021/12/22 02:40:45;;;;;;;5.10;4.47;;;17.70;54.50;;;;;;5003805;28;20050;-63
2021/12/22 02:43:10;;;;;;;4.45;4.03;;;17.70;54.50;;;;;;5003454;28;20109;-64
2021/12/22 02:45:37;;;;;;;4.20;3.75;;;17.70;54.50;;;;;;5002922;28;20106;-64
2021/12/22 02:48:03;;;;;;;5.30;4.60;;;17.70;54.50;;;;;;5003394;28;20030;-64
2021/12/22 02:50:29;;;;;;;5.18;4.03;;;17.70;54.50;;;;;;5002131;28;20449;-63
2021/12/22 02:53:10;;;;;;;5.60;3.97;;;17.70;54.50;;;;;;5003515;28;20045;-64
2021/12/22 02:55:49;;;;;;;5.03;3.90;;;17.60;54.50;;;;;;4985854;28;20034;-64
2021/12/22 02:58:31;;;;;;;5.00;4.35;;;17.60;54.50;;;;;;4999958;28;20121;-64
2021/12/22 03:06:02;;;;;;;5.45;4.00;;;17.50;54.50;;;;;;5003220;28;20026;-64
2021/12/22 03:08:27;;;;;;;4.20;3.80;;;17.50;54.60;;;;;;5002475;28;20036;-64
2021/12/22 03:10:55;;;;;;;5.70;4.40;;;17.50;54.60;;;;;;5002857;28;20461;-64
2021/12/22 03:13:21;;;;;;;5.28;4.18;;;17.50;54.70;;;;;;5003467;28;20038;-63
2021/12/22 03:15:47;;;;;;;4.50;3.95;;;17.50;54.60;;;;;;5001936;28;20025;-64
2021/12/22 03:18:12;;;;;;;4.85;4.00;;;17.50;54.70;;;;;;5002639;28;20438;-64
2021/12/22 03:20:38;;;;;;;4.70;4.07;;;17.40;54.70;;;;;;4999962;28;20034;-64
2021/12/22 03:23:04;;;;;;;4.68;4.18;;;17.40;54.70;;;;;;5002930;28;20041;-64
2021/12/22 03:25:30;;;;;;;5.72;4.20;;;17.40;54.70;;;;;;5002920;28;20398;-64
2021/12/22 03:28:01;;;;;;;5.03;4.15;;;17.40;54.80;;;;;;5002727;28;20022;-64
2021/12/22 03:30:26;;;;;;;5.45;4.38;;;17.40;54.80;;;;;;5002619;28;20030;-64
2021/12/22 03:32:52;;;;;;;4.55;3.80;;;17.40;54.70;;;;;;5002441;28;20030;-65
2021/12/22 03:35:20;;;;;;;5.63;4.18;;;17.40;54.70;;;;;;5007056;28;20026;-64
2021/12/22 03:37:46;;;;;;;4.70;4.25;;;17.40;54.70;;;;;;5002908;28;20033;-64
2021/12/22 03:40:12;;;;;;;4.43;4.03;;;17.40;54.70;;;;;;5002283;28;20041;-64
2021/12/22 03:42:37;;;;;;;5.13;3.97;;;17.40;54.60;;;;;;5002395;28;20422;-64
2021/12/22 03:45:03;;;;;;;5.20;3.70;;;17.50;54.50;;;;;;5002339;28;20537;-64
2021/12/22 03:47:29;;;;;;;4.75;4.25;;;17.50;54.30;;;;;;5002627;28;20117;-64
2021/12/22 03:49:54;;;;;;;4.82;4.43;;;17.60;54.20;;;;;;4997142;28;20446;-63
2021/12/22 03:52:20;;;;;;;4.25;3.83;;;17.70;54.10;;;;;;5002925;28;20103;-64
2021/12/22 03:54:45;;;;;;;4.78;4.32;;;17.70;53.90;;;;;;5002112;28;20057;-64
2021/12/22 03:57:11;;;;;;;4.90;4.30;;;17.80;53.90;;;;;;5002390;28;20395;-64
2021/12/22 03:59:36;;;;;;;4.40;3.58;;;17.80;53.90;;;;;;5001884;28;20758;-64
2021/12/22 04:02:02;;;;;;;4.90;4.38;;;17.80;53.80;;;;;;5002116;28;20063;-64
2021/12/22 04:04:27;;;;;;;4.25;3.85;;;17.80;53.80;;;;;;5002371;28;20084;-64
2021/12/22 04:06:53;;;;;;;4.00;3.60;;;17.90;53.80;;;;;;5003307;28;20117;-65
2021/12/22 04:09:26;;;;;;;4.93;4.03;;;17.90;53.80;;;;;;5004460;28;20040;-65
2021/12/22 04:11:51;;;;;;;6.18;4.13;;;17.90;53.80;;;;;;4994595;28;20038;-64
2021/12/22 04:14:17;;;;;;;4.50;4.03;;;17.90;53.80;;;;;;5001927;28;20036;-64
2021/12/22 04:16:42;;;;;;;4.95;3.90;;;17.90;53.80;;;;;;5002490;28;20038;-64
2021/12/22 04:19:08;;;;;;;4.03;3.63;;;17.90;53.80;;;;;;5001526;28;20607;-64
2021/12/22 04:21:33;;;;;;;4.53;3.80;;;17.90;53.90;;;;;;5001816;28;20038;-65
2021/12/22 04:24:00;;;;;;;4.38;3.67;;;17.90;53.80;;;;;;5001976;28;20110;-64
2021/12/22 04:26:27;;;;;;;3.92;3.60;;;17.90;53.80;;;;;;5001839;28;20064;-64
2021/12/22 04:28:53;;;;;;;4.20;3.80;;;18.00;53.80;;;;;;5001129;28;20038;-64
2021/12/22 04:31:18;;;;;;;4.25;3.85;;;18.00;53.90;;;;;;5000863;28;20506;-64
2021/12/22 04:33:44;;;;;;;3.67;3.28;;;18.00;53.90;;;;;;5000289;28;20045;-64
2021/12/22 04:36:09;;;;;;;5.15;3.95;;;18.00;53.80;;;;;;5001929;28;20026;-64
2021/12/22 04:38:34;;;;;;;4.40;3.90;;;18.00;53.80;;;;;;5000400;28;20550;-64
2021/12/22 04:41:00;;;;;;;3.83;3.47;;;18.00;53.80;;;;;;5000872;28;20050;-64
2021/12/22 04:43:26;;;;;;;4.15;3.30;;;18.00;53.80;;;;;;5001950;28;20038;-65
2021/12/22 04:45:51;;;;;;;4.03;3.53;;;18.00;53.80;;;;;;5000960;28;20458;-64
2021/12/22 04:48:17;;;;;;;4.07;3.63;;;18.10;53.80;;;;;;5001249;28;20056;-63
2021/12/22 04:50:42;;;;;;;5.47;3.70;;;18.00;53.80;;;;;;5001656;28;20029;-64
2021/12/22 04:53:13;;;;;;;3.53;3.05;;;18.00;53.80;;;;;;4999807;28;20612;-64
2021/12/22 04:55:38;;;;;;;4.07;3.63;;;18.00;53.70;;;;;;5001311;28;20026;-65
2021/12/22 04:58:04;;;;;;;3.92;3.50;;;18.00;53.80;;;;;;5001121;28;20084;-64
2021/12/22 05:00:31;;;;;;;3.40;3.10;;;18.00;53.80;;;;;;5002200;28;20544;-64
2021/12/22 05:02:57;;;;;;;4.03;3.63;;;18.00;53.70;;;;;;5001541;28;20034;-64
2021/12/22 05:05:22;;;;;;;4.05;3.65;;;18.00;53.70;;;;;;5001899;28;20034;-64
2021/12/22 05:07:48;;;;;;;3.83;3.42;;;18.00;53.70;;;;;;5000859;28;20553;-64
2021/12/22 05:10:15;;;;;;;4.47;3.63;;;18.00;53.70;;;;;;5001751;28;20658;-65
2021/12/22 05:12:41;;;;;;;4.40;3.67;;;18.00;53.70;;;;;;5001691;28;20033;-65
2021/12/22 05:15:06;;;;;;;4.75;3.47;;;18.00;53.70;;;;;;5000217;28;20033;-65
2021/12/22 05:17:50;;;;;;;4.07;3.65;;;18.00;53.70;;;;;;5001364;28;20038;-65
2021/12/22 05:20:16;;;;;;;4.95;3.58;;;18.00;53.70;;;;;;4999531;28;20036;-64
2021/12/22 05:22:42;;;;;;;3.90;3.50;;;18.00;53.60;;;;;;5001284;28;20034;-65
2021/12/22 05:25:09;;;;;;;3.92;3.38;;;18.00;53.70;;;;;;5001653;28;20109;-64
2021/12/22 05:27:34;;;;;;;3.97;3.58;;;18.00;53.60;;;;;;4997591;28;20030;-65
2021/12/22 05:30:00;;;;;;;3.90;3.60;;;18.00;53.60;;;;;;4999740;28;20446;-65
2021/12/22 05:32:30;;;;;;;4.18;3.78;;;18.00;53.60;;;;;;5001671;28;20042;-64
2021/12/22 05:34:57;;;;;;;3.90;3.50;;;18.00;53.60;;;;;;5002114;28;20018;-64
2021/12/22 05:37:22;;;;;;;4.47;3.35;;;18.00;53.50;;;;;;4999335;28;20676;-64
2021/12/22 05:39:48;;;;;;;3.88;3.58;;;18.10;53.60;;;;;;5007832;28;20083;-65
2021/12/22 05:42:13;;;;;;;3.72;3.33;;;18.00;53.50;;;;;;5006168;28;20034;-64
2021/12/22 05:44:39;;;;;;;5.45;3.83;;;18.00;53.50;;;;;;5005229;28;20057;-64
2021/12/22 05:47:04;;;;;;;5.07;3.78;;;18.10;53.50;;;;;;5005639;28;20509;-64
2021/12/22 05:49:30;;;;;;;4.20;3.50;;;18.00;53.30;;;;;;5003728;28;20125;-64
2021/12/22 05:51:55;;;;;;;4.00;3.60;;;18.00;54.00;;;;;;5005425;28;20040;-65
2021/12/22 05:54:21;;;;;;;4.47;3.80;;;18.00;53.30;;;;;;5005305;28;20057;-65
2021/12/22 05:56:46;;;;;;;4.05;3.65;;;18.00;53.30;;;;;;5004700;28;20457;-64
2021/12/22 05:59:12;;;;;;;4.60;3.60;;;18.00;53.30;;;;;;5003348;28;20034;-65
2021/12/22 06:01:37;;;;;;;3.85;3.45;;;18.00;53.30;;;;;;5002270;28;20057;-64
2021/12/22 06:04:03;;;;;;;3.70;3.40;;;18.00;53.20;;;;;;5004758;28;20076;-64
2021/12/22 06:06:29;;;;;;;3.90;3.58;;;18.00;53.20;;;;;;5004389;28;20795;-64
2021/12/22 06:08:55;;;;;;;4.10;3.70;;;18.00;53.10;;;;;;5003955;28;20567;-64
2021/12/22 06:11:20;;;;;;;4.25;3.85;;;18.00;53.20;;;;;;5002698;28;20045;-63
2021/12/22 06:13:46;;;;;;;4.38;3.65;;;18.00;53.20;;;;;;5002815;28;20053;-65
2021/12/22 06:16:11;;;;;;;4.00;3.60;;;18.00;53.10;;;;;;5004662;28;20060;-64
2021/12/22 06:18:42;;;;;;;3.90;3.60;;;18.00;53.20;;;;;;5003202;28;20038;-64
2021/12/22 06:21:08;;;;;;;4.18;3.78;;;17.90;53.10;;;;;;5003703;28;20482;-65
2021/12/22 06:23:33;;;;;;;3.85;3.40;;;17.90;53.00;;;;;;5004331;28;20038;-64
2021/12/22 06:25:59;;;;;;;3.80;3.50;;;17.90;53.10;;;;;;5001890;28;20045;-64
2021/12/22 06:28:24;;;;;;;4.53;4.13;;;17.90;53.10;;;;;;5003727;28;20030;-64
2021/12/22 06:30:50;;;;;;;4.18;3.78;;;17.90;53.00;;;;;;5003971;28;20034;-64
2021/12/22 06:33:15;;;;;;;4.10;3.75;;;17.90;53.00;;;;;;5003505;28;20557;-64
2021/12/22 06:35:41;;;;;;;3.75;3.45;;;17.90;53.00;;;;;;5003943;28;20030;-63
2021/12/22 06:38:07;;;;;;;3.97;3.63;;;17.90;52.80;;;;;;5003675;28;20085;-64
2021/12/22 06:40:33;;;;;;;3.85;3.53;;;17.90;52.80;;;;;;5003540;28;20045;-64
2021/12/22 06:42:58;;;;;;;4.35;3.95;;;17.90;52.80;;;;;;5003504;28;20108;-64
2021/12/22 06:45:24;;;;;;;4.03;3.63;;;17.90;52.90;;;;;;5004336;28;20164;-64
2021/12/22 06:47:50;;;;;;;4.55;4.15;;;17.90;52.70;;;;;;5003598;28;20026;-63
2021/12/22 06:50:15;;;;;;;4.35;3.70;;;17.90;52.60;;;;;;5003209;28;20040;-65
2021/12/22 06:52:41;;;;;;;3.75;3.45;;;17.90;52.60;;;;;;5003439;28;20034;-65
2021/12/22 06:55:07;;;;;;;3.50;3.20;;;17.90;52.60;;;;;;5002913;28;20033;-64
2021/12/22 06:57:33;;;;;;;4.00;3.60;;;17.90;52.50;;;;;;5003260;28;20103;-64
2021/12/22 06:59:59;;;;;;;3.80;3.50;;;17.90;52.50;;;;;;4995590;28;20069;-63
2021/12/22 07:02:26;;;;;;;3.80;3.50;;;17.90;52.50;;;;;;5002694;28;20083;-64
2021/12/22 07:04:52;;;;;;;3.85;3.50;;;17.90;52.50;;;;;;5002509;28;20079;-64
2021/12/22 07:07:17;;;;;;;3.65;3.35;;;17.90;52.50;;;;;;4994615;28;20034;-64
2021/12/22 07:09:43;;;;;;;3.72;3.42;;;17.90;52.50;;;;;;5003690;28;20022;-64
2021/12/22 07:12:11;;;;;;;4.07;3.45;;;17.90;52.50;;;;;;5003675;28;20033;-64
2021/12/22 07:14:36;;;;;;;3.90;3.60;;;17.90;52.60;;;;;;5002642;28;20038;-64
2021/12/22 07:17:02;;;;;;;4.00;3.70;;;17.90;52.70;;;;;;5004179;28;20711;-64
2021/12/22 07:19:28;;;;;;;3.85;3.28;;;17.90;52.70;;;;;;5001990;28;20038;-64
2021/12/22 07:21:54;;;;;;;4.25;3.85;;;17.80;52.70;;;;;;5004329;28;20029;-65
2021/12/22 07:24:20;;;;;;;4.22;3.70;;;17.80;52.80;;;;;;5003708;28;20091;-64
2021/12/22 07:26:46;;;;;;;4.32;3.70;;;17.80;52.80;;;;;;5003868;28;20108;-64
2021/12/22 07:29:12;;;;;;;4.18;3.55;;;17.80;52.80;;;;;;5002870;28;20024;-64
2021/12/22 07:31:38;;;;;;;4.07;3.78;;;17.80;52.90;;;;;;5002892;28;20033;-64
2021/12/22 07:34:20;;;;;;;6.28;3.97;;;17.80;52.80;;;;;;5003542;28;20040;-65
2021/12/22 07:36:49;;;;;;;4.15;3.75;;;17.80;52.90;;;;;;4996230;28;20052;-65
2021/12/22 07:39:15;;;;;;;5.25;3.53;;;17.80;52.90;;;;;;5003183;28;20041;-65
2021/12/22 07:41:40;;;;;;;4.32;3.90;;;17.80;53.00;;;;;;5003383;28;20044;-64
2021/12/22 07:44:06;;;;;;;6.05;3.92;;;17.80;53.00;;;;;;5003629;28;20025;-64
2021/12/22 07:46:31;;;;;;;4.20;3.72;;;17.80;53.10;;;;;;5003495;28;20624;-65
2021/12/22 07:48:57;;;;;;;4.82;3.67;;;17.80;53.20;;;;;;5004284;28;20050;-64
2021/12/22 07:51:22;;;;;;;4.18;3.55;;;17.80;53.20;;;;;;5004256;28;20037;-64
2021/12/22 07:53:48;;;;;;;4.20;3.80;;;17.80;53.30;;;;;;5003466;28;20413;-64
2021/12/22 07:56:15;;;;;;;4.78;3.85;;;17.80;53.30;;;;;;5003195;28;20025;-64
2021/12/22 07:58:40;;;;;;;3.85;3.53;;;17.70;53.30;;;;;;5002709;28;20113;-64
2021/12/22 08:01:06;;;;;;;3.72;3.10;;;17.70;53.30;;;;;;5003284;28;20523;-64
2021/12/22 08:03:31;;;;;;;4.10;3.78;;;17.80;53.40;;;;;;5002942;28;20498;-64
2021/12/22 08:05:57;;;;;;;5.43;4.00;;;17.70;53.30;;;;;;5002874;28;20080;-64
2021/12/22 08:08:22;;;;;;;7.65;3.90;;;17.70;53.40;;;;;;5003373;28;20022;-62
2021/12/22 08:10:48;;;;;;;6.03;4.32;;;17.70;53.40;;;;;;5002353;28;20651;-66
2021/12/22 08:13:15;;;;;;;7.95;4.72;;;17.70;53.40;;;;;;5002593;28;20034;-63
2021/12/22 08:15:41;;;;;;;10.27;5.10;;;17.70;53.40;;;;;;5002654;28;20030;-65
2021/12/22 08:18:06;;;;;;;12.85;5.70;;;17.70;53.40;;;;;;5002330;28;20037;-65
2021/12/22 08:20:32;;;;;;;7.30;5.07;;;17.70;53.40;;;;;;5003230;28;20045;-62
2021/12/22 08:22:57;;;;;;;7.85;5.93;;;17.70;53.40;;;;;;5002250;28;20022;-64
2021/12/22 08:25:23;;;;;;;12.98;5.78;;;17.70;53.50;;;;;;5003535;28;20030;-63
2021/12/22 08:27:48;;;;;;;9.18;5.40;;;17.70;53.40;;;;;;5001890;28;20052;-64
2021/12/22 08:30:14;;;;;;;9.15;5.80;;;17.70;53.30;;;;;;5002897;28;20120;-64
2021/12/22 08:32:39;;;;;;;10.27;6.50;;;17.70;53.30;;;;;;4993227;28;20517;-64
2021/12/22 08:35:07;;;;;;;11.07;6.30;;;17.70;53.20;;;;;;5001536;28;20441;-64
2021/12/22 08:40:19;;;;;;;;;;;17.70;53.20;;;;;;5002627;28;20056;-63
2021/12/22 08:42:44;;;;;;;14.70;7.65;;;17.70;53.10;;;;;;5001227;28;19909;-64
2021/12/22 08:45:10;;;;;;;15.60;8.57;;;17.70;53.70;;;;;;5002036;28;20029;-63
2021/12/22 08:47:35;;;;;;;11.98;8.07;;;17.70;53.00;;;;;;5002640;28;20044;-64
2021/12/22 08:50:01;;;;;;;14.45;7.82;;;17.70;53.00;;;;;;5000281;28;20026;-63
2021/12/22 08:52:26;;;;;;;16.33;8.35;;;17.70;53.00;;;;;;5002444;28;20803;-65
2021/12/22 08:54:52;;;;;;;14.02;8.80;;;17.70;53.00;;;;;;5002661;28;20033;-64
2021/12/22 08:57:17;;;;;;;13.73;9.68;;;17.70;53.00;;;;;;5003913;28;20034;-64
2021/12/22 08:59:43;;;;;;;17.60;9.18;;;17.60;53.00;;;;;;5001518;28;20034;-63
2021/12/22 09:02:08;;;;;;;15.43;8.75;;;17.60;53.10;;;;;;5002350;28;20478;-65
2021/12/22 09:04:34;;;;;;;19.88;10.60;;;17.60;53.10;;;;;;5002269;28;20126;-65
2021/12/22 09:06:59;;;;;;;17.63;9.95;;;17.60;53.10;;;;;;5002372;28;20087;-65
2021/12/22 09:09:25;;;;;;;19.73;10.25;;;17.60;53.10;;;;;;5002305;28;20741;-64
2021/12/22 09:11:50;;;;;;;16.17;10.52;;;17.60;53.10;;;;;;5001829;28;20060;-64
2021/12/22 09:14:16;;;;;;;15.70;10.18;;;17.60;53.20;;;;;;5002411;28;20045;-64
2021/12/22 09:16:42;;;;;;;19.50;10.38;;;17.60;53.20;;;;;;5002393;28;20470;-63
2021/12/22 09:19:08;;;;;;;16.23;10.35;;;17.60;53.20;;;;;;5003489;28;20108;-64
2021/12/22 09:21:34;;;;;;;30.85;16.35;;;17.60;53.20;;;;;;5005792;28;20095;-63
2021/12/22 09:23:59;;;;;;;75.75;39.25;;;17.60;53.40;;;;;;5006551;28;20057;-64
2021/12/22 09:26:25;;;;;;;71.50;39.92;;;17.60;53.90;;;;;;5006885;28;20026;-64
2021/12/22 09:28:51;;;;;;;77.68;44.67;;;17.50;53.90;;;;;;5006069;28;20057;-64
2021/12/22 09:31:17;;;;;;;89.82;46.78;;;17.50;53.90;;;;;;5006391;28;20037;-65
2021/12/22 09:33:42;;;;;;;86.90;46.90;;;17.50;53.90;;;;;;5006268;28;20030;-64
2021/12/22 09:36:09;;;;;;;88.00;49.88;;;17.50;54.00;;;;;;5005774;28;20065;-64
2021/12/22 09:38:34;;;;;;;90.97;47.70;;;17.50;54.20;;;;;;5005136;28;20050;-63
2021/12/22 09:41:00;;;;;;;86.57;47.85;;;17.50;54.30;;;;;;5006102;28;20526;-64
2021/12/22 09:43:27;;;;;;;83.20;45.65;;;17.50;54.30;;;;;;5006245;28;20842;-65
2021/12/22 09:45:58;;;;;;;81.47;44.65;;;17.50;54.30;;;;;;5006237;28;20501;-64
2021/12/22 09:48:33;;;;;;;71.80;39.65;;;17.60;54.30;;;;;;5005789;28;20041;-63
2021/12/22 09:53:26;;;;;;;68.15;35.35;;;17.50;54.10;;;;;;5005198;28;19917;-63
2021/12/22 09:55:52;;;;;;;67.05;35.50;;;17.50;54.20;;;;;;5005622;28;20037;-64
2021/12/22 09:58:18;;;;;;;59.25;33.00;;;17.40;54.20;;;;;;5005262;28;20484;-64
2021/12/22 10:00:44;;;;;;;59.97;29.55;;;17.40;54.10;;;;;;5004699;28;20038;-64
2021/12/22 10:03:09;;;;;;;53.63;29.20;;;17.50;54.00;;;;;;5005416;28;20037;-64
2021/12/22 10:05:38;;;;;;;46.42;25.83;;;17.50;53.80;;;;;;5005233;28;20112;-65
2021/12/22 10:08:16;;;;;;;48.83;27.55;;;17.50;53.50;;;;;;5005348;28;20087;-65
2021/12/22 10:10:44;;;;;;;49.35;26.30;;;17.60;53.30;;;;;;5005187;28;20034;-64
2021/12/22 10:13:15;;;;;;;45.17;24.13;;;17.70;53.10;;;;;;5004870;28;20034;-64
2021/12/22 10:15:40;;;;;;;43.72;25.42;;;17.80;52.80;;;;;;5004545;28;20164;-64
2021/12/22 10:18:10;;;;;;;43.78;24.23;;;17.80;52.60;;;;;;5004745;28;20038;-65
2021/12/22 10:20:36;;;;;;;37.38;23.42;;;17.80;52.60;;;;;;5004580;28;20044;-64
2021/12/22 10:23:01;;;;;;;38.25;22.55;;;17.90;52.50;;;;;;5004630;28;20030;-64
2021/12/22 10:25:29;;;;;;;34.50;22.13;;;17.90;52.60;;;;;;5004609;28;20518;-64
2021/12/22 10:28:07;;;;;;;37.90;20.25;;;17.90;52.60;;;;;;5004995;28;20794;-63
2021/12/22 10:30:37;;;;;;;36.70;20.77;;;17.90;52.70;;;;;;5003430;28;20041;-64
2021/12/22 10:33:09;;;;;;;34.35;19.63;;;17.90;52.80;;;;;;5002637;28;20034;-63
2021/12/22 10:35:38;;;;;;;30.85;18.33;;;17.90;52.80;;;;;;5006479;28;20414;-64
2021/12/22 10:38:03;;;;;;;23.92;15.65;;;17.90;52.80;;;;;;5006422;28;20042;-63
2021/12/22 10:40:40;;;;;;;30.70;17.33;;;18.00;53.00;;;;;;5000823;28;20037;-63
2021/12/22 10:43:06;;;;;;;30.80;16.80;;;17.90;53.10;;;;;;5006969;28;20477;-63
2021/12/22 10:45:34;;;;;;;25.35;16.80;;;17.90;53.30;;;;;;5005183;28;20083;-63
2021/12/22 10:50:45;;;;;;;22.90;14.02;;;18.00;53.40;;;;;;5006035;28;20065;-63
2021/12/22 10:53:12;;;;;;;21.70;13.30;;;17.90;53.40;;;;;;5008759;28;20050;-62
2021/12/22 10:55:41;;;;;;;26.52;13.95;;;18.00;53.50;;;;;;5005789;28;20034;-62
2021/12/22 10:58:26;;;;;;;19.45;12.95;;;18.00;53.70;;;;;;5006363;28;20502;-62
2021/12/22 11:01:03;;;;;;;22.00;14.80;;;17.90;53.70;;;;;;5005975;28;20042;-62
2021/12/22 11:03:42;;;;;;;24.13;14.43;;;18.00;53.90;;;;;;5003054;28;20096;-62
2021/12/22 11:06:27;;;;;;;27.33;13.77;;;18.00;54.00;;;;;;5005550;28;20498;-62
2021/12/22 11:08:53;;;;;;;20.43;11.97;;;18.00;54.00;;;;;;5002997;28;20061;-62
2021/12/22 11:11:19;;;;;;;23.92;12.45;;;18.00;54.10;;;;;;5005235;28;20132;-62
2021/12/22 11:13:44;;;;;;;23.50;11.95;;;17.90;54.10;;;;;;5004746;28;20145;-61
2021/12/22 11:16:12;;;;;;;20.23;10.75;;;17.90;54.10;;;;;;5002330;28;20026;-62
2021/12/22 11:18:37;;;;;;;19.20;10.73;;;17.90;54.50;;;;;;5040988;22;20045;-64
2021/12/22 11:21:11;;;;;;;17.08;10.15;;;17.90;54.40;;;;;;5022488;28;20112;-63
2021/12/22 11:23:36;;;;;;;18.60;10.32;;;18.00;54.10;;;;;;5023657;28;20025;-62
2021/12/22 11:26:03;;;;;;;17.50;8.40;;;18.00;53.90;;;;;;5029815;28;20168;-63
2021/12/22 11:28:29;;;;;;;13.20;7.85;;;18.00;53.70;;;;;;5009766;28;20679;-63
2021/12/22 11:30:56;;;;;;;10.80;7.35;;;17.90;53.60;;;;;;4997369;28;20744;-67
2021/12/22 11:33:21;;;;;;;13.85;7.85;;;17.90;53.90;;;;;;4978628;28;20054;-68
2021/12/22 11:35:47;;;;;;;10.40;7.05;;;17.80;54.10;;;;;;4974751;28;20166;-68
2021/12/22 11:38:12;;;;;;;11.27;7.57;;;17.80;54.20;;;;;;5002130;28;20022;-67
2021/12/22 11:40:38;;;;;;;13.77;6.85;;;17.80;54.30;;;;;;4981075;28;20033;-66
2021/12/22 11:43:03;;;;;;;10.38;6.65;;;17.70;54.40;;;;;;4978469;28;20030;-66
2021/12/22 11:45:29;;;;;;;12.98;6.85;;;17.80;54.50;;;;;;5016596;28;20030;-68
2021/12/22 11:47:57;;;;;;;12.30;6.28;;;17.80;54.60;;;;;;4996708;28;20064;-65
2021/12/22 11:50:32;;;;;;;15.23;7.93;;;17.70;54.50;;;;;;5006835;28;20085;-67
2021/12/22 11:52:59;;;;;;;16.35;8.85;;;17.80;54.40;;;;;;5002384;28;20030;-69
2021/12/22 11:55:25;;;;;;;13.77;9.05;;;17.70;54.30;;;;;;5004202;28;20053;-64
2021/12/22 11:57:52;;;;;;;27.95;14.63;;;17.70;54.40;;;;;;5004867;28;20041;-65
2021/12/22 12:00:29;;;;;;;24.63;15.15;;;17.70;54.50;;;;;;5003471;28;20026;-67
2021/12/22 12:02:56;;;;;;;30.10;17.77;;;17.70;54.50;;;;;;5004716;28;20463;-65
2021/12/22 12:05:29;;;;;;;30.08;17.15;;;17.70;54.40;;;;;;5003768;28;20037;-68
2021/12/22 12:07:59;;;;;;;24.00;16.15;;;17.70;54.40;;;;;;5004469;28;20045;-65
2021/12/22 12:10:38;;;;;;;24.35;15.85;;;17.70;54.40;;;;;;5002957;28;20038;-67
2021/12/22 12:13:15;;;;;;;26.13;16.00;;;17.70;54.30;;;;;;5004469;28;20072;-65
2021/12/22 12:21:39;;;;;;;24.42;15.50;;;17.70;54.20;;;;;;5003656;28;20033;-65
2021/12/22 12:21:56;;;;;;;24.17;14.43;;;17.60;53.90;;;;;;5002048;28;20041;-66
2021/12/22 12:24:30;;;;;;;24.92;14.82;;;17.60;53.80;;;;;;5001440;28;20030;-63
2021/12/22 12:26:56;;;;;;;22.92;14.85;;;17.60;53.80;;;;;;5004775;28;20030;-62
2021/12/22 12:29:53;;;;;;;28.00;16.65;;;17.60;53.80;;;;;;5002812;28;20033;-64
2021/12/22 12:32:50;;;;;;;38.05;24.33;;;17.60;53.70;;;;;;5003102;28;20505;-65
2021/12/22 12:35:18;;;;;;;49.83;33.35;;;17.60;54.00;;;;;;5004489;28;20033;-64
2021/12/22 12:38:00;;;;;;;55.90;34.70;;;17.60;54.40;;;;;;5005253;28;20018;-65
2021/12/22 12:41:11;;;;;;;53.95;33.10;;;17.60;54.30;;;;;;5004947;28;20042;-66
2021/12/22 12:43:51;;;;;;;50.35;32.50;;;17.60;54.30;;;;;;4956744;28;20526;-64
2021/12/22 12:48:49;;;;;;;39.30;26.95;;;17.50;54.20;;;;;;5004224;28;20767;-66
2021/12/22 12:51:18;;;;;;;45.38;28.88;;;17.50;54.20;;;;;;4999678;28;21529;-64
2021/12/22 12:53:49;;;;;;;39.78;26.77;;;17.50;54.30;;;;;;5003966;28;20034;-65
2021/12/22 12:56:15;;;;;;;45.90;28.20;;;17.50;54.10;;;;;;5003085;28;20029;-64
2021/12/22 12:58:54;;;;;;;43.13;27.13;;;17.40;54.10;;;;;;5002191;28;20678;-63
2021/12/22 13:01:51;;;;;;;38.72;27.23;;;17.40;54.00;;;;;;4997788;28;20575;-65
2021/12/22 13:04:27;;;;;;;36.63;25.83;;;17.40;54.00;;;;;;4996297;28;20775;-63
2021/12/22 13:06:54;;;;;;;37.80;25.40;;;17.40;54.00;;;;;;4986952;28;20022;-67
2021/12/22 13:09:24;;;;;;;38.33;23.75;;;17.40;54.00;;;;;;5002997;28;20044;-69
2021/12/22 13:11:56;;;;;;;38.58;24.27;;;17.30;53.80;;;;;;5002972;28;20153;-63